Amunt
Inicio > meteoXarxa
Fes-te'n soci

METEOXARXA

Fredes
Ubicació UJI
Comarca el Baix Maestrat
Altitud (msnm) 1232
Posició geogràfica 40° 41' 23.00" N, 00° 9' 34.00" E
Model Davis Vantage Pro
Presa de dades
Font de les dades Universitat Jaume I de Castelló
Estadístiques. Resum
Data Temperatura (ºC) Humitat (%) Pressió (hPa) Vent (km/h) Precipit. (mm)
Mínima Mitjana Màxima Mínima Mitjana Màxima Mínima Mitjana Màxima Predom. Mitjana Ràfega màxima Total Dies de pluja
Mínima Mitjana Màxima Mínima Mitjana Màxima
Últimes dades diàries
26-03-2017 2,7     4,9     7,6 ESE 17,7 43,5 0,0  
25-03-2017 0,5     3,4     6,4 ESE 17,4 48,3 0,0  
24-03-2017 0,4     1,4     2,9 NW 14,8 54,7 0,0  
23-03-2017 -0,8     1,6     7,7 NW 16,7 46,7 0,0  
22-03-2017 3,9     6,0     8,3 ESE 17,1 48,3 0,0  
21-03-2017 3,8     8,7     13,0 NNW 22,0 51,5 0,0  
20-03-2017 8,1     11,5     14,2 NW 12,7 35,4 0,0  
19-03-2017 9,0     11,7     16,8 NW 15,4 41,8 0,0  
18-03-2017 9,7     11,2     13,6 NW 20,9 40,2 0,0  
14-03-2017 1,8     4,1     7,3 NW 31,2 69,2 0,0  
13-03-2017 4,2     7,1     9,1 NW 37,2 85,3 2,0  
05-03-2017 3,6     10,6     15,7 WSW 22,4 62,8 0,0  
04-03-2017 11,1     13,4     15,4 NW 11,3 35,4 0,5  
02-03-2017 11,1     13,5     17,2 NW 20,4 40,2 0,0  
21-02-2017 7,5     8,9     10,3 S 12,1 54,7 0,0  
20-02-2017 6,1     8,3     10,4 SSW 8,2 29,0 4,1  
19-02-2017 4,2     6,4     10,2 NNW 22,2 67,6 0,0  
18-02-2017 6,8     10,6     14,9 NW 14,2 41,8 0,0  
17-02-2017 6,1     9,5     13,7 NW 16,9 49,9 0,0  
16-02-2017 3,2     6,6     10,2 NW 20,0 43,5 0,0  
15-02-2017 1,1     4,1     8,4 NW 25,1 54,7 0,0  
14-02-2017 1,8     4,1     7,3 NW 31,2 69,2 0,0  
13-02-2017 4,2     7,1     9,1 NW 37,2 85,3 2,0  
12-02-2017 4,4     7,1     10,7 NW 31,1 72,4 0,0  
11-02-2017 4,3     6,3     9,5 NW 47,3 93,3 0,0  
10-02-2017 3,2     5,4     8,2 NW 44,6 91,7 0,0  
09-02-2017 2,7     5,4     8,5 NW 44,4 101,4 0,5  
08-02-2017 -0,8     1,9     4,1 NW 47,5 96,6 0,0  
06-02-2017 1,4     3,3     5,7 NW 41,0 86,9 0,8  
05-02-2017 3,6     10,6     15,7 WSW 22,4 62,8 0,0  
04-02-2017 11,1     13,4     15,4 NW 11,3 35,4 0,5  
03-02-2017 11,7     13,9     18,0 NW 17,2 40,2 0,0  
Dades del mes en curs (actualitzades fins l'últim dia disponible)
03/2017 -0,8 4,9 11,1 7,8 2,9 11,1 17,2   19,8 85,3 2,5  
Últimes dades mensuals
10/2016 6,6 10,0 13,2 12,5 10,8 16,0 21,5 13,4 72,4 15,9 6
09/2016 6,8 13,3 23,0 16,1 12,1 19,9 30,4 16,3 90,1 41,9 6
08/2016 7,3 14,7 18,7 18,7 17,9 23,2 27,3 14,4 72,4 9,1 5
07/2016 6,3 15,4 20,8 19,4 17,8 23,5 31,3 15,4 82,1 3,0 5
06/2016 5,7 11,7 17,2 15,6 13,5 19,6 25,4 18,3 90,1 49,5 5
05/2016 -0,9 6,9 14,2 10,4 7,3 14,3 20,7 21,5 96,6 60,6 11
04/2016 -1,5 4,0 7,0 10,5 15,6 20,9 101,4 56,4 12
03/2016 -2,8 1,1 3,9 7,3 15,4 28,9 117,5 71,0 4
02/2016 -5,5 1,6 8,2 4,4 1,1 7,9 13,8 29,7 115,9 48,3 10
01/2016 -3,6 3,0 9,9 5,8 0,2 8,9 14,6 22,6 103,0 20,8 12
12/2015 3,7 6,9 12,0 9,2 7,7 11,9 16,7 10,1 70,8 1,5 5
11/2015 -4,3 6,9 13,9 9,5 1,6 12,3 19,5 21,0 98,2 50,7 9
10/2015 1,4 8,3 15,9 10,9 9,4 14,0 21,0 14,8 86,9 39,8 16
Dades de l'any en curs (actualitzades fins l'últim dia disponible)
2017 -0,8 4,5 11,7 7,4 2,9 10,6 18,0   25,8 101,4 14,0  
Últimes dades anuals